Time;durP1;ratioP1;P1;durP2;ratioP2;P2;SDS_P1;SDS_P2;PMS_P1;PMS_P2;Temp;Humidity;BMP_temperature;BMP_pressure;BME280_temperature;BME280_humidity;BME280_pressure;Samples;Min_cycle;Max_cycle;Signal;HPM_P1;HPM_P2
2021/08/24 00:00:24;;;;;;;9.70;6.05;;;21.30;99.90;;;;;;5029852;28;20052;-67
2021/08/24 00:03:28;;;;;;;10.63;5.83;;;21.30;99.90;;;;;;5029795;28;20072;-67
2021/08/24 00:06:32;;;;;;;11.43;6.30;;;21.20;99.90;;;;;;5029915;28;20037;-67
2021/08/24 00:09:37;;;;;;;10.40;6.47;;;21.30;99.90;;;;;;5029422;28;20053;-67
2021/08/24 00:12:41;;;;;;;10.00;6.25;;;21.30;99.90;;;;;;5031552;28;20041;-66
2021/08/24 00:15:47;;;;;;;10.20;6.00;;;21.40;99.90;;;;;;5033657;28;20049;-66
2021/08/24 00:18:52;;;;;;;9.95;6.57;;;21.40;99.90;;;;;;5033440;28;20064;-66
2021/08/24 00:21:57;;;;;;;12.63;6.82;;;21.20;99.90;;;;;;5033495;28;20495;-66
2021/08/24 00:25:01;;;;;;;10.05;5.55;;;21.10;99.90;;;;;;5034009;28;20116;-67
2021/08/24 00:28:08;;;;;;;8.27;5.68;;;21.20;99.90;;;;;;5032170;28;20511;-66
2021/08/24 00:31:12;;;;;;;8.57;5.90;;;21.20;99.90;;;;;;5033447;28;20048;-67
2021/08/24 00:34:16;;;;;;;9.02;5.63;;;21.30;99.90;;;;;;5033481;28;20044;-67
2021/08/24 00:37:21;;;;;;;11.98;6.22;;;21.30;99.90;;;;;;5033073;28;20049;-67
2021/08/24 00:40:27;;;;;;;10.02;6.10;;;21.40;99.90;;;;;;5049573;28;20044;-66
2021/08/24 00:43:37;;;;;;;9.77;6.50;;;21.30;99.90;;;;;;5024352;28;20495;-67
2021/08/24 00:46:48;;;;;;;15.10;6.57;;;21.30;99.90;;;;;;5052126;28;20048;-66
2021/08/24 00:49:59;;;;;;;10.25;6.30;;;21.10;99.90;;;;;;5032978;28;20048;-67
2021/08/24 00:53:12;;;;;;;10.25;5.88;;;21.10;99.90;;;;;;5031837;28;20040;-67
2021/08/24 00:56:16;;;;;;;10.05;6.03;;;20.90;99.90;;;;;;5035460;28;20400;-66
2021/08/24 00:59:20;;;;;;;9.63;5.80;;;20.90;99.90;;;;;;5052909;28;20036;-67
2021/08/24 01:02:25;;;;;;;9.52;6.20;;;20.90;99.90;;;;;;5052988;28;20044;-67
2021/08/24 01:05:31;;;;;;;10.63;5.93;;;20.90;99.90;;;;;;5052601;28;20051;-67
2021/08/24 01:08:53;;;;;;;7.55;5.57;;;20.90;99.90;;;;;;5052228;28;20325;-67
2021/08/24 01:12:13;;;;;;;10.30;5.72;;;20.90;99.90;;;;;;5052801;28;20044;-67
2021/08/24 01:15:59;;;;;;;10.07;6.22;;;20.90;99.90;;;;;;5050196;28;20032;-67
2021/08/24 01:19:23;;;;;;;9.68;5.75;;;20.90;99.90;;;;;;5050363;28;20043;-67
2021/08/24 01:22:52;;;;;;;9.88;6.93;;;20.90;99.90;;;;;;5052493;28;20036;-67
2021/08/24 01:26:26;;;;;;;10.05;6.18;;;20.90;99.90;;;;;;5032508;28;20032;-66
2021/08/24 01:29:56;;;;;;;10.60;6.22;;;20.80;99.90;;;;;;5018704;28;20044;-66
2021/08/24 01:33:09;;;;;;;10.65;6.25;;;20.80;99.90;;;;;;5042671;28;20388;-66
2021/08/24 01:36:29;;;;;;;9.55;6.07;;;20.90;99.90;;;;;;5052292;28;20044;-67
2021/08/24 01:39:40;;;;;;;11.38;6.85;;;20.90;99.90;;;;;;5051716;28;20044;-66
2021/08/24 01:42:45;;;;;;;9.15;6.10;;;20.90;99.90;;;;;;5052245;28;20103;-67
2021/08/24 01:46:07;;;;;;;12.50;6.50;;;20.90;99.90;;;;;;5052092;28;20040;-66
2021/08/24 01:49:13;;;;;;;8.73;5.43;;;21.00;99.90;;;;;;5051796;28;20039;-67
2021/08/24 01:52:21;;;;;;;9.27;5.90;;;20.80;99.90;;;;;;5052168;28;20487;-66
2021/08/24 01:55:30;;;;;;;6.40;5.18;;;20.70;99.90;;;;;;5051852;28;20506;-67
2021/08/24 01:58:49;;;;;;;7.78;5.88;;;20.70;99.90;;;;;;5051588;28;20048;-67
2021/08/24 02:02:06;;;;;;;9.20;5.68;;;20.70;99.90;;;;;;5051848;28;20052;-67
2021/08/24 02:05:34;;;;;;;9.35;5.47;;;20.60;99.90;;;;;;5051831;28;20043;-66
2021/08/24 02:08:43;;;;;;;11.73;6.07;;;20.60;99.90;;;;;;5051137;28;20506;-67
2021/08/24 02:11:50;;;;;;;8.73;6.07;;;20.60;99.90;;;;;;5051403;28;20048;-67
2021/08/24 02:14:54;;;;;;;11.30;6.18;;;20.60;99.90;;;;;;5051452;28;20052;-66
2021/08/24 02:17:59;;;;;;;8.38;5.80;;;20.60;99.90;;;;;;5050798;28;20048;-67
2021/08/24 02:21:23;;;;;;;10.35;6.47;;;20.70;99.90;;;;;;5051478;28;20073;-67
2021/08/24 02:24:36;;;;;;;7.53;5.82;;;20.60;99.90;;;;;;5051281;28;20052;-67
2021/08/24 02:27:58;;;;;;;9.90;6.13;;;20.60;99.90;;;;;;5051069;28;20040;-67
2021/08/24 02:31:14;;;;;;;9.73;5.93;;;20.60;99.90;;;;;;5061577;28;20048;-66
2021/08/24 02:34:18;;;;;;;9.02;6.00;;;20.60;99.90;;;;;;5050584;28;20419;-66
2021/08/24 02:37:35;;;;;;;9.20;5.85;;;20.60;99.90;;;;;;5051087;28;20039;-67
2021/08/24 02:40:52;;;;;;;8.10;6.05;;;20.60;99.90;;;;;;5051329;28;20218;-66
2021/08/24 02:44:12;;;;;;;14.35;6.60;;;20.60;99.90;;;;;;5051133;28;20403;-66
2021/08/24 02:47:18;;;;;;;9.88;6.38;;;20.50;99.90;;;;;;5051757;28;20116;-66
2021/08/24 02:50:24;;;;;;;10.25;6.22;;;20.40;99.90;;;;;;5051632;28;20068;-66
2021/08/24 02:53:32;;;;;;;12.63;6.60;;;20.20;99.90;;;;;;5051618;28;20051;-66
2021/08/24 02:56:37;;;;;;;11.40;6.50;;;20.20;99.90;;;;;;5051418;28;20051;-66
2021/08/24 02:59:41;;;;;;;9.60;6.40;;;20.10;99.90;;;;;;5050585;28;20511;-66
2021/08/24 03:02:46;;;;;;;9.77;6.28;;;20.20;99.90;;;;;;5051138;28;20044;-67
2021/08/24 03:05:50;;;;;;;10.73;7.07;;;20.10;99.90;;;;;;5051190;28;20048;-66
2021/08/24 03:08:54;;;;;;;14.82;6.97;;;20.10;99.90;;;;;;5050213;28;20404;-67
2021/08/24 03:12:10;;;;;;;9.35;6.03;;;20.10;99.90;;;;;;5050844;28;20052;-67
2021/08/24 03:15:25;;;;;;;9.02;6.18;;;20.10;99.90;;;;;;5050461;28;20048;-67
2021/08/24 03:18:39;;;;;;;10.02;6.70;;;20.10;99.90;;;;;;5049911;28;20411;-67
2021/08/24 03:21:45;;;;;;;8.23;6.40;;;20.10;99.90;;;;;;5050461;28;20028;-66
2021/08/24 03:24:50;;;;;;;9.75;6.80;;;20.20;99.90;;;;;;5050321;28;20051;-66
2021/08/24 03:27:54;;;;;;;10.73;6.45;;;20.20;99.90;;;;;;5049833;28;20043;-66
2021/08/24 03:30:58;;;;;;;16.90;6.20;;;20.20;99.90;;;;;;5050218;28;20399;-67
2021/08/24 03:34:02;;;;;;;9.70;6.03;;;20.20;99.90;;;;;;5050355;28;20048;-67
2021/08/24 03:37:08;;;;;;;10.25;6.43;;;20.20;99.90;;;;;;5049880;28;20036;-66
2021/08/24 03:40:13;;;;;;;9.45;6.72;;;20.20;99.90;;;;;;5049062;28;20036;-66
2021/08/24 03:43:17;;;;;;;9.93;6.15;;;20.10;99.90;;;;;;5049991;28;20047;-67
2021/08/24 03:46:21;;;;;;;9.98;6.13;;;20.00;99.90;;;;;;5049224;28;20056;-67
2021/08/24 03:49:25;;;;;;;11.13;6.80;;;20.00;99.90;;;;;;5049118;28;20055;-66
2021/08/24 03:52:29;;;;;;;13.60;6.45;;;20.00;99.90;;;;;;5049891;28;20048;-66
2021/08/24 03:55:33;;;;;;;10.55;6.43;;;20.00;99.90;;;;;;5049639;28;20506;-66
2021/08/24 03:58:38;;;;;;;11.35;7.25;;;19.90;99.90;;;;;;5049204;28;20396;-67
2021/08/24 04:01:41;;;;;;;10.27;6.38;;;19.70;99.90;;;;;;5049622;28;20044;-66
2021/08/24 04:04:46;;;;;;;10.77;6.05;;;19.80;99.90;;;;;;5049687;28;20047;-66
2021/08/24 04:07:52;;;;;;;18.90;7.15;;;19.80;99.90;;;;;;5049252;28;20048;-67
2021/08/24 04:10:57;;;;;;;10.13;6.88;;;19.80;99.90;;;;;;5049411;28;20051;-67
2021/08/24 04:14:02;;;;;;;9.55;6.88;;;19.80;99.90;;;;;;5049357;28;20480;-66
2021/08/24 04:17:05;;;;;;;9.38;6.70;;;19.80;99.90;;;;;;5049588;28;20048;-67
2021/08/24 04:20:13;;;;;;;12.60;6.65;;;19.80;99.90;;;;;;5049150;28;20047;-66
2021/08/24 04:23:20;;;;;;;9.70;6.13;;;19.80;99.90;;;;;;5049636;28;20515;-66
2021/08/24 04:26:26;;;;;;;14.57;6.78;;;19.80;99.90;;;;;;5049486;28;20151;-66
2021/08/24 04:29:30;;;;;;;12.30;6.82;;;19.80;99.90;;;;;;5048854;28;20396;-66
2021/08/24 04:32:37;;;;;;;9.63;6.38;;;19.80;99.90;;;;;;5046947;28;20498;-67
2021/08/24 04:35:42;;;;;;;11.35;6.82;;;19.80;99.90;;;;;;5049599;28;20048;-67
2021/08/24 04:38:46;;;;;;;11.63;6.25;;;19.70;99.90;;;;;;5049081;28;20384;-67
2021/08/24 04:41:49;;;;;;;8.88;5.95;;;19.80;99.90;;;;;;5056754;28;20048;-66
2021/08/24 04:44:54;;;;;;;11.60;7.13;;;19.80;99.90;;;;;;5036550;28;20044;-66
2021/08/24 04:47:59;;;;;;;9.00;6.53;;;19.80;99.90;;;;;;5041987;28;20718;-67
2021/08/24 04:51:03;;;;;;;12.80;6.35;;;19.80;99.90;;;;;;5038239;28;20045;-66
2021/08/24 04:54:08;;;;;;;9.75;6.43;;;19.90;99.90;;;;;;5045705;28;20514;-66
2021/08/24 04:57:11;;;;;;;12.38;6.93;;;20.00;99.90;;;;;;5049220;28;20032;-67
2021/08/24 05:00:16;;;;;;;9.70;6.28;;;20.00;99.90;;;;;;5052619;28;20238;-66
2021/08/24 05:03:20;;;;;;;12.32;6.32;;;20.10;99.90;;;;;;5054047;28;20047;-66
2021/08/24 05:06:24;;;;;;;15.48;6.20;;;20.10;99.90;;;;;;5052894;28;20047;-66
2021/08/24 05:09:29;;;;;;;10.77;6.53;;;20.20;99.90;;;;;;5052365;28;20044;-66
2021/08/24 05:12:34;;;;;;;17.60;7.03;;;20.30;99.90;;;;;;5053062;28;20052;-67
2021/08/24 05:15:38;;;;;;;9.05;6.10;;;20.30;99.90;;;;;;5052633;28;20056;-67
2021/08/24 05:18:42;;;;;;;8.57;5.20;;;20.40;99.90;;;;;;5052395;28;20039;-67
2021/08/24 05:21:46;;;;;;;14.75;6.18;;;20.60;99.90;;;;;;5052598;28;20048;-67
2021/08/24 05:24:50;;;;;;;14.93;7.18;;;20.70;99.90;;;;;;5035046;28;20048;-67
2021/08/24 05:27:55;;;;;;;13.43;6.22;;;20.80;99.90;;;;;;5039250;28;20049;-67
2021/08/24 05:30:59;;;;;;;19.38;6.80;;;20.90;99.90;;;;;;5038985;28;20043;-67
2021/08/24 05:34:04;;;;;;;13.23;6.18;;;21.10;99.90;;;;;;5050090;28;20052;-67
2021/08/24 05:37:09;;;;;;;11.48;6.60;;;21.20;99.90;;;;;;5052052;28;20115;-67
2021/08/24 05:40:13;;;;;;;8.50;5.80;;;21.30;99.90;;;;;;5051879;28;20039;-67
2021/08/24 05:43:17;;;;;;;9.77;5.80;;;21.60;99.90;;;;;;5052115;28;20045;-67
2021/08/24 05:46:21;;;;;;;9.13;5.32;;;21.80;99.90;;;;;;5051623;28;20040;-66
2021/08/24 05:49:32;;;;;;;9.73;5.72;;;22.00;99.90;;;;;;5051266;28;20048;-67
2021/08/24 05:52:36;;;;;;;12.75;5.90;;;22.10;99.90;;;;;;5051125;28;20625;-67
2021/08/24 05:55:43;;;;;;;8.98;5.50;;;22.10;99.90;;;;;;5051616;28;20404;-67
2021/08/24 05:58:48;;;;;;;9.90;5.70;;;22.10;99.90;;;;;;5032030;28;20046;-68
2021/08/24 06:01:52;;;;;;;9.75;5.38;;;22.20;99.90;;;;;;5045513;28;20036;-68
2021/08/24 06:04:56;;;;;;;11.45;6.50;;;22.50;99.90;;;;;;5051533;28;20056;-67
2021/08/24 06:08:00;;;;;;;13.15;6.35;;;22.80;99.90;;;;;;5032682;28;20040;-67
2021/08/24 06:11:04;;;;;;;14.15;5.72;;;23.00;99.90;;;;;;5031546;28;20396;-68
2021/08/24 06:14:09;;;;;;;9.85;6.20;;;23.30;99.90;;;;;;5033155;28;20097;-67
2021/08/24 06:17:13;;;;;;;11.50;5.63;;;23.60;99.90;;;;;;5048615;28;20044;-67
2021/08/24 06:20:17;;;;;;;8.48;5.65;;;23.60;99.90;;;;;;5050367;28;20040;-67
2021/08/24 06:23:21;;;;;;;8.40;5.15;;;23.50;99.90;;;;;;5051093;28;20040;-67
2021/08/24 06:26:25;;;;;;;7.60;5.18;;;23.80;99.90;;;;;;5051370;28;20060;-67
2021/08/24 06:29:29;;;;;;;12.00;5.15;;;24.20;99.90;;;;;;5051017;28;20052;-67
2021/08/24 06:32:37;;;;;;;8.60;5.40;;;23.70;99.90;;;;;;5050116;28;20055;-67
2021/08/24 06:35:43;;;;;;;10.52;5.60;;;23.60;99.90;;;;;;5050871;28;20052;-67
2021/08/24 06:38:49;;;;;;;7.55;5.00;;;24.30;99.90;;;;;;5050546;28;20036;-67
2021/08/24 06:41:53;;;;;;;8.82;4.90;;;25.50;99.90;;;;;;5050929;28;20815;-67
2021/08/24 06:44:57;;;;;;;8.77;4.70;;;27.40;99.90;;;;;;5051255;28;20048;-68
2021/08/24 06:48:01;;;;;;;11.32;5.32;;;28.90;99.40;;;;;;5050705;28;20043;-68
2021/08/24 06:51:05;;;;;;;6.82;4.95;;;27.40;99.40;;;;;;5050110;28;20048;-67
2021/08/24 06:54:09;;;;;;;7.10;4.60;;;26.20;99.90;;;;;;5051003;28;20048;-67
2021/08/24 06:57:14;;;;;;;7.68;4.95;;;26.70;99.90;;;;;;5051581;28;20527;-67
2021/08/24 07:00:21;;;;;;;7.22;4.75;;;26.90;99.90;;;;;;5051524;28;20585;-67
2021/08/24 11:52:31;;;;;;;2.40;1.73;;;38.10;55.20;;;;;;5038152;27;20409;-55
2021/08/24 11:55:45;;;;;;;2.00;1.50;;;34.30;60.30;;;;;;5036737;22;20037;-47
2021/08/24 11:58:50;;;;;;;3.90;1.90;;;35.20;59.00;;;;;;5042747;28;20390;-47
2021/08/24 12:01:56;;;;;;;1.38;1.02;;;36.80;58.10;;;;;;5015795;28;20041;-48
2021/08/24 12:05:03;;;;;;;2.47;1.17;;;38.40;54.30;;;;;;5025990;28;20042;-51
2021/08/24 12:08:16;;;;;;;1.35;1.10;;;39.00;53.60;;;;;;5037833;28;20037;-47
2021/08/24 12:11:42;;;;;;;3.33;1.30;;;39.10;53.40;;;;;;5045977;28;20730;-48
2021/08/24 12:14:57;;;;;;;1.10;1.00;;;38.30;53.70;;;;;;5045821;28;20033;-47
2021/08/24 12:18:21;;;;;;;3.80;1.13;;;36.80;54.70;;;;;;5025496;28;20493;-50
2021/08/24 12:21:34;;;;;;;2.22;1.23;;;35.90;55.00;;;;;;5025751;28;20041;-49
2021/08/24 12:25:13;;;;;;;3.28;1.30;;;34.70;56.10;;;;;;5025540;28;20030;-47
2021/08/24 12:28:17;;;;;;;1.70;1.10;;;33.70;57.70;;;;;;5014442;28;20041;-47
2021/08/24 12:31:44;;;;;;;3.92;1.20;;;33.00;58.80;;;;;;5025797;28;20382;-50
2021/08/24 12:35:04;;;;;;;2.97;1.20;;;32.80;58.70;;;;;;5025639;28;20398;-48
2021/08/24 12:38:31;;;;;;;2.70;1.27;;;32.50;58.70;;;;;;5025492;28;20037;-48
2021/08/24 12:41:36;;;;;;;3.45;1.38;;;33.00;58.60;;;;;;5025479;28;20038;-51
2021/08/24 12:45:07;;;;;;;3.75;1.40;;;33.20;58.00;;;;;;5025348;28;20034;-50
2021/08/24 12:48:18;;;;;;;4.18;1.17;;;33.00;57.70;;;;;;5027138;28;20041;-47
2021/08/24 12:51:32;;;;;;;2.58;1.20;;;32.30;57.90;;;;;;5023265;28;20038;-50
2021/08/24 12:55:01;;;;;;;2.70;1.23;;;31.60;58.70;;;;;;5012192;28;20038;-47
2021/08/24 12:58:15;;;;;;;4.70;1.42;;;31.60;59.90;;;;;;5012383;28;20042;-51
2021/08/24 13:01:23;;;;;;;3.38;1.40;;;31.40;60.30;;;;;;5011902;28;20034;-50
2021/08/24 13:04:27;;;;;;;4.25;1.35;;;31.60;60.30;;;;;;5011995;28;20026;-48
2021/08/24 13:07:32;;;;;;;2.30;1.35;;;31.80;60.40;;;;;;5020923;28;20410;-48
2021/08/24 13:10:46;;;;;;;3.90;1.38;;;32.00;59.20;;;;;;5031718;28;20033;-51
2021/08/24 13:13:58;;;;;;;3.42;1.23;;;31.50;60.60;;;;;;5031714;28;20041;-49
2021/08/24 13:17:02;;;;;;;2.92;1.20;;;31.30;60.80;;;;;;5031540;28;20038;-49
2021/08/24 13:20:13;;;;;;;3.15;1.30;;;31.00;61.40;;;;;;5031482;28;20034;-51
2021/08/24 13:23:28;;;;;;;1.95;1.20;;;30.80;61.50;;;;;;5031557;28;20512;-47
2021/08/24 13:27:06;;;;;;;3.08;1.58;;;30.50;62.20;;;;;;5031560;28;20037;-47
2021/08/24 13:30:35;;;;;;;3.30;1.20;;;30.60;62.20;;;;;;5031429;28;20046;-49
2021/08/24 13:33:58;;;;;;;8.68;1.48;;;30.60;61.70;;;;;;5030395;28;20488;-48
2021/08/24 13:37:06;;;;;;;3.53;1.40;;;30.50;62.20;;;;;;5031200;28;20516;-48
2021/08/24 13:40:27;;;;;;;3.85;1.33;;;30.40;62.50;;;;;;5030364;28;20045;-49
2021/08/24 13:43:33;;;;;;;2.33;1.30;;;30.30;63.70;;;;;;5030367;28;20033;-48
2021/08/24 13:46:38;;;;;;;2.58;1.25;;;29.90;64.20;;;;;;5030822;28;20034;-48
2021/08/24 13:49:59;;;;;;;3.97;1.38;;;29.80;64.80;;;;;;5030232;28;20022;-48
2021/08/24 13:53:15;;;;;;;2.67;1.30;;;29.70;65.10;;;;;;5031179;28;20042;-49
2021/08/24 13:56:31;;;;;;;7.85;1.63;;;29.90;65.40;;;;;;5029634;28;20041;-48
2021/08/24 13:59:48;;;;;;;6.78;1.42;;;30.10;64.20;;;;;;5030093;28;20041;-48
2021/08/24 14:02:53;;;;;;;15.00;2.42;;;29.90;64.60;;;;;;5030284;28;20045;-48
2021/08/24 14:06:01;;;;;;;3.08;1.73;;;29.40;65.20;;;;;;5029555;28;20044;-49
2021/08/24 14:09:32;;;;;;;2.55;1.33;;;29.50;65.20;;;;;;5011460;28;20034;-47
2021/08/24 14:12:52;;;;;;;3.97;1.40;;;29.40;65.20;;;;;;5011364;28;20042;-47
2021/08/24 14:15:56;;;;;;;3.78;1.23;;;29.20;66.00;;;;;;5009766;28;20037;-47
2021/08/24 14:19:28;;;;;;;3.22;1.42;;;29.00;66.30;;;;;;5009865;28;20046;-47
2021/08/24 14:22:33;;;;;;;2.45;1.20;;;29.30;66.30;;;;;;5009853;28;20046;-48
2021/08/24 14:25:42;;;;;;;3.80;1.40;;;29.20;66.20;;;;;;5021033;28;20030;-48
2021/08/24 14:28:48;;;;;;;5.63;1.95;;;29.30;66.00;;;;;;5010809;28;20038;-47
2021/08/24 14:31:56;;;;;;;1.38;1.15;;;29.10;66.10;;;;;;5009695;28;20034;-47
2021/08/24 14:35:02;;;;;;;16.65;2.25;;;29.00;67.20;;;;;;5009954;28;20034;-48
2021/08/24 14:38:09;;;;;;;5.28;1.70;;;28.80;66.60;;;;;;5009564;28;20052;-47
2021/08/24 14:41:20;;;;;;;3.08;1.17;;;29.00;66.90;;;;;;5010341;28;20056;-47
2021/08/24 14:44:30;;;;;;;2.00;1.38;;;29.20;66.60;;;;;;5009543;28;20309;-47
2021/08/24 14:47:38;;;;;;;4.32;1.25;;;29.10;66.30;;;;;;5010319;28;20537;-47
2021/08/24 14:50:43;;;;;;;2.25;1.30;;;29.30;66.70;;;;;;5009661;28;20043;-47
2021/08/24 14:53:53;;;;;;;3.15;1.42;;;29.40;66.90;;;;;;5010371;28;20046;-48
2021/08/24 14:57:40;;;;;;;2.60;1.45;;;29.20;67.20;;;;;;4997790;28;20049;-49
2021/08/24 15:01:03;;;;;;;4.13;1.48;;;29.20;67.00;;;;;;5009773;28;20042;-51
2021/08/24 15:04:10;;;;;;;2.63;1.38;;;29.00;67.00;;;;;;5009242;28;20505;-47
2021/08/24 15:07:18;;;;;;;3.60;1.52;;;29.40;67.00;;;;;;5016577;28;20342;-47
2021/08/24 15:10:27;;;;;;;4.32;1.65;;;29.60;66.20;;;;;;5029115;28;20033;-48
2021/08/24 15:13:37;;;;;;;7.47;1.58;;;29.30;66.10;;;;;;5029086;28;20041;-49
2021/08/24 15:16:45;;;;;;;2.58;1.30;;;29.40;66.40;;;;;;5028982;28;20041;-48
2021/08/24 15:20:18;;;;;;;3.83;1.42;;;29.60;66.00;;;;;;5029506;28;20030;-48
2021/08/24 15:23:33;;;;;;;4.60;1.40;;;29.80;65.40;;;;;;5029776;28;20056;-48
2021/08/24 15:26:47;;;;;;;2.03;1.27;;;29.60;65.80;;;;;;5029167;28;20033;-47
2021/08/24 15:30:19;;;;;;;1.75;1.20;;;29.20;66.80;;;;;;5029427;28;20044;-47
2021/08/24 15:33:32;;;;;;;3.90;1.38;;;29.00;66.90;;;;;;5029198;28;20048;-48
2021/08/24 15:36:39;;;;;;;3.45;1.25;;;28.90;67.20;;;;;;5029132;28;20064;-48
2021/08/24 15:39:43;;;;;;;3.17;1.40;;;29.00;67.20;;;;;;5029352;28;20060;-47
2021/08/24 15:42:48;;;;;;;3.25;1.30;;;28.60;67.80;;;;;;5029069;28;20048;-47
2021/08/24 15:45:52;;;;;;;5.30;1.48;;;28.40;68.50;;;;;;5028161;28;20037;-48
2021/08/24 15:48:57;;;;;;;2.53;1.20;;;28.30;68.60;;;;;;5029345;28;20049;-51
2021/08/24 15:52:04;;;;;;;2.83;1.17;;;28.00;68.30;;;;;;5029432;28;20056;-47
2021/08/24 15:55:36;;;;;;;4.22;1.85;;;28.00;68.60;;;;;;5028906;28;20528;-47
2021/08/24 15:58:40;;;;;;;;;;;27.90;68.60;;;;;;5029675;28;20046;-51
2021/08/24 16:01:44;;;;;;;3.05;1.17;;;28.00;68.70;;;;;;5029084;28;19920;-49
2021/08/24 16:04:48;;;;;;;6.03;1.33;;;27.90;68.60;;;;;;5029180;28;20049;-51
2021/08/24 16:07:53;;;;;;;7.75;1.70;;;27.90;68.90;;;;;;5028914;28;20409;-47
2021/08/24 16:10:58;;;;;;;2.92;1.40;;;27.70;68.70;;;;;;5028884;28;20048;-51
2021/08/24 16:14:02;;;;;;;3.88;1.45;;;27.70;68.70;;;;;;5029209;28;20046;-48
2021/08/24 16:17:10;;;;;;;3.55;1.63;;;27.50;69.10;;;;;;5029278;28;20038;-51
2021/08/24 16:20:15;;;;;;;5.57;1.52;;;27.40;69.30;;;;;;5029529;28;20042;-48
2021/08/24 16:23:20;;;;;;;4.05;1.77;;;27.50;69.50;;;;;;5029572;28;20393;-48
2021/08/24 16:26:25;;;;;;;6.53;1.52;;;27.50;69.50;;;;;;5028979;28;20064;-47
2021/08/24 16:29:29;;;;;;;4.30;1.60;;;27.50;69.50;;;;;;5032458;28;20428;-48
2021/08/24 16:32:34;;;;;;;2.28;1.35;;;27.40;69.80;;;;;;5032587;28;20211;-48
2021/08/24 16:35:44;;;;;;;2.45;1.30;;;27.40;69.80;;;;;;5032780;28;20405;-47
2021/08/24 16:38:49;;;;;;;2.95;1.33;;;27.40;70.10;;;;;;5032384;28;20052;-49
2021/08/24 16:41:53;;;;;;;3.60;1.42;;;27.30;70.50;;;;;;5032026;28;20409;-47
2021/08/24 16:44:56;;;;;;;5.07;1.60;;;27.40;70.70;;;;;;5032075;28;20034;-47
2021/08/24 16:48:01;;;;;;;3.90;1.50;;;27.20;71.10;;;;;;5032101;28;20033;-50
2021/08/24 16:51:05;;;;;;;3.50;1.45;;;27.10;71.60;;;;;;5031929;28;20056;-48
2021/08/24 16:54:08;;;;;;;6.22;1.50;;;27.00;71.90;;;;;;5020158;28;20044;-47
2021/08/24 16:57:14;;;;;;;3.00;1.38;;;27.00;72.30;;;;;;5032060;28;20056;-48
2021/08/24 17:00:21;;;;;;;3.15;1.50;;;26.90;72.90;;;;;;5031917;28;20048;-47
2021/08/24 17:03:26;;;;;;;4.10;1.40;;;26.90;72.90;;;;;;5032009;28;20034;-50
2021/08/24 17:06:31;;;;;;;2.83;1.83;;;26.80;73.10;;;;;;5031169;28;20040;-48
2021/08/24 17:09:35;;;;;;;4.65;1.20;;;26.70;73.40;;;;;;5011079;28;20049;-49
2021/08/24 17:12:40;;;;;;;3.80;2.08;;;26.70;73.70;;;;;;5011835;28;20050;-46
2021/08/24 17:15:48;;;;;;;2.00;1.20;;;26.50;73.80;;;;;;5012144;28;20051;-47
2021/08/24 17:18:52;;;;;;;3.60;1.55;;;26.40;74.30;;;;;;5011902;28;20041;-48
2021/08/24 17:21:56;;;;;;;2.70;1.40;;;26.40;74.50;;;;;;5011819;28;20045;-47
2021/08/24 17:25:01;;;;;;;2.78;1.60;;;26.30;74.40;;;;;;5012054;28;20516;-48
2021/08/24 17:28:10;;;;;;;6.43;1.58;;;26.30;74.50;;;;;;5012027;28;20516;-47
2021/08/24 17:31:19;;;;;;;3.58;1.60;;;26.30;74.50;;;;;;5011494;28;20441;-47
2021/08/24 17:34:23;;;;;;;5.43;1.27;;;26.20;74.30;;;;;;5011795;28;20038;-47
2021/08/24 17:37:28;;;;;;;3.50;1.60;;;26.20;74.10;;;;;;5011602;28;20041;-46
2021/08/24 17:40:34;;;;;;;3.25;1.40;;;26.10;73.80;;;;;;5011412;28;20041;-47
2021/08/24 17:43:38;;;;;;;3.38;1.50;;;26.00;74.00;;;;;;5011383;28;20041;-47
2021/08/24 17:46:47;;;;;;;5.10;1.35;;;25.90;74.10;;;;;;5011668;28;20049;-46
2021/08/24 17:50:01;;;;;;;2.10;1.10;;;25.70;74.00;;;;;;5011156;28;20397;-47
2021/08/24 17:53:06;;;;;;;2.60;1.20;;;25.70;74.00;;;;;;5010940;28;20053;-46
2021/08/24 17:56:11;;;;;;;1.63;1.02;;;25.60;73.90;;;;;;5011288;22;20081;-49
2021/08/24 17:59:16;;;;;;;3.95;1.42;;;25.60;73.90;;;;;;4960394;28;20050;-53
2021/08/24 18:02:20;;;;;;;4.22;1.27;;;25.50;73.90;;;;;;4930527;29;20044;-51
2021/08/24 18:05:32;;;;;;;4.53;1.17;;;25.40;73.80;;;;;;4960825;28;20035;-51
2021/08/24 18:08:36;;;;;;;2.05;1.10;;;25.40;73.50;;;;;;5065708;28;20028;-49
2021/08/24 18:11:41;;;;;;;3.17;1.08;;;25.30;73.00;;;;;;5068094;28;20041;-50
2021/08/24 18:14:45;;;;;;;3.13;1.20;;;25.30;72.90;;;;;;5050725;28;20048;-51
2021/08/24 18:17:23;;;;;;;2.90;0.90;;;25.20;72.20;;;;;;5107059;27;20519;-50
2021/08/24 18:20:30;;;;;;;1.23;0.95;;;25.20;71.70;;;;;;5086741;28;20486;-50
2021/08/24 18:23:34;;;;;;;1.83;0.90;;;25.20;71.40;;;;;;5087207;28;20032;-55
2021/08/24 18:26:38;;;;;;;3.28;1.17;;;25.10;71.20;;;;;;5083914;28;20032;-50
2021/08/24 18:29:45;;;;;;;1.13;0.82;;;25.10;70.80;;;;;;5085126;28;20033;-53
2021/08/24 18:32:51;;;;;;;2.75;1.00;;;25.10;70.70;;;;;;5086556;28;20486;-50
2021/08/24 18:35:58;;;;;;;1.88;0.90;;;25.10;70.80;;;;;;5085909;28;20055;-51
2021/08/24 18:39:04;;;;;;;1.88;1.17;;;25.10;70.60;;;;;;5086001;28;20032;-54
2021/08/24 18:42:08;;;;;;;2.65;1.23;;;25.00;70.40;;;;;;5086442;28;20036;-56
2021/08/24 18:45:18;;;;;;;1.85;1.00;;;25.00;70.30;;;;;;5086457;28;20028;-54
2021/08/24 18:48:23;;;;;;;1.67;0.93;;;24.90;70.00;;;;;;5086384;28;20502;-54
2021/08/24 18:51:28;;;;;;;3.72;1.23;;;24.90;70.00;;;;;;5086050;28;20041;-55
2021/08/24 18:54:33;;;;;;;1.63;0.80;;;24.90;69.80;;;;;;5086579;28;20029;-54
2021/08/24 18:57:37;;;;;;;5.18;0.80;;;24.80;69.90;;;;;;5086029;28;20040;-54
2021/08/24 19:01:02;;;;;;;1.48;0.80;;;24.70;69.90;;;;;;5085907;28;20036;-55
2021/08/24 19:04:07;;;;;;;2.78;0.90;;;24.60;69.90;;;;;;5065834;28;20037;-53
2021/08/24 19:07:11;;;;;;;1.67;0.82;;;24.60;70.40;;;;;;5064966;28;20104;-55
2021/08/24 19:10:20;;;;;;;1.70;0.80;;;24.50;70.40;;;;;;5065416;28;20037;-54
2021/08/24 19:13:25;;;;;;;1.55;1.00;;;24.40;70.50;;;;;;5065936;28;20045;-55
2021/08/24 19:16:30;;;;;;;1.67;0.70;;;24.40;70.80;;;;;;5065826;28;20040;-55
2021/08/24 19:19:38;;;;;;;1.15;0.70;;;24.30;71.00;;;;;;5065445;28;20036;-54
2021/08/24 19:22:42;;;;;;;4.18;1.00;;;24.20;70.70;;;;;;5064800;28;20033;-55
2021/08/24 19:25:50;;;;;;;1.77;0.70;;;24.20;70.90;;;;;;5065635;28;20037;-54
2021/08/24 19:28:55;;;;;;;3.35;1.00;;;24.10;71.20;;;;;;5051980;28;20044;-54
2021/08/24 19:32:00;;;;;;;1.20;0.75;;;24.00;71.40;;;;;;5052245;28;20411;-55
2021/08/24 19:35:07;;;;;;;1.48;0.73;;;24.00;71.30;;;;;;5052277;28;20037;-51
2021/08/24 19:38:13;;;;;;;3.60;0.80;;;24.00;71.40;;;;;;5052468;28;20048;-55
2021/08/24 19:41:17;;;;;;;1.88;0.93;;;23.90;71.10;;;;;;5051866;28;20391;-51
2021/08/24 19:44:21;;;;;;;1.30;0.80;;;23.90;71.50;;;;;;5052182;28;20033;-53
2021/08/24 19:47:26;;;;;;;5.68;1.10;;;23.90;71.50;;;;;;5052395;28;20033;-53
2021/08/24 19:50:31;;;;;;;1.23;0.73;;;23.90;70.80;;;;;;5051540;28;20041;-53
2021/08/24 19:53:35;;;;;;;1.15;0.70;;;23.80;70.40;;;;;;5051777;28;20036;-51
2021/08/24 19:56:40;;;;;;;0.95;0.50;;;23.80;69.50;;;;;;5051789;28;20041;-55
2021/08/24 19:59:43;;;;;;;1.45;0.80;;;23.80;68.40;;;;;;5051499;28;20041;-54
2021/08/24 20:02:48;;;;;;;2.67;0.90;;;23.80;68.80;;;;;;5052020;28;20033;-55
2021/08/24 20:05:52;;;;;;;1.27;0.60;;;23.80;67.80;;;;;;5050868;28;20045;-55
2021/08/24 20:08:58;;;;;;;2.75;0.80;;;23.80;67.30;;;;;;5050828;28;20032;-49
2021/08/24 20:12:03;;;;;;;1.33;0.63;;;23.80;67.40;;;;;;5050980;28;20040;-53
2021/08/24 20:15:07;;;;;;;0.95;0.70;;;23.80;67.10;;;;;;5051127;28;20041;-54
2021/08/24 20:18:12;;;;;;;1.13;0.77;;;23.80;66.90;;;;;;5051382;28;20037;-54
2021/08/24 20:21:16;;;;;;;1.42;0.70;;;23.80;67.20;;;;;;5050784;28;20490;-51
2021/08/24 20:24:23;;;;;;;2.85;0.77;;;23.70;67.50;;;;;;5051111;28;20037;-53
2021/08/24 20:27:28;;;;;;;0.90;0.65;;;23.70;67.20;;;;;;5051088;28;20494;-53
2021/08/24 20:30:32;;;;;;;1.42;0.70;;;23.70;67.10;;;;;;5050795;28;20391;-54
2021/08/24 20:33:36;;;;;;;1.20;0.80;;;23.70;66.90;;;;;;5050786;28;20036;-52
2021/08/24 20:36:41;;;;;;;2.55;0.70;;;23.70;67.10;;;;;;5060089;28;20040;-52
2021/08/24 20:39:46;;;;;;;1.77;0.98;;;23.70;66.80;;;;;;5069834;28;20037;-54
2021/08/24 20:42:50;;;;;;;4.45;0.70;;;23.70;66.60;;;;;;5070349;28;20040;-53
2021/08/24 20:45:55;;;;;;;1.17;0.80;;;23.70;67.40;;;;;;5070492;28;20036;-52
2021/08/24 20:49:01;;;;;;;0.75;0.57;;;23.70;67.60;;;;;;5069752;28;20040;-53
2021/08/24 20:52:07;;;;;;;1.17;0.73;;;23.80;68.30;;;;;;5069227;28;20032;-54
2021/08/24 20:55:12;;;;;;;1.33;0.63;;;23.70;67.40;;;;;;5070499;28;20486;-53
2021/08/24 20:58:16;;;;;;;3.17;0.90;;;23.80;67.40;;;;;;5070305;28;20457;-55
2021/08/24 21:01:43;;;;;;;1.50;0.85;;;23.70;73.10;;;;;;5068990;28;20029;-53
2021/08/24 21:04:47;;;;;;;1.30;0.68;;;23.60;70.70;;;;;;5070477;28;20028;-55
2021/08/24 21:07:55;;;;;;;2.85;1.17;;;23.60;70.50;;;;;;5069503;28;20033;-55